createdAt,value
2023-03-26T00:00:33.104Z,4.30
2023-03-26T00:03:07.756Z,4.70
2023-03-26T00:05:36.987Z,4.23
2023-03-26T00:08:09.066Z,4.17
2023-03-26T00:10:42.081Z,3.67
2023-03-26T00:13:12.306Z,4.03
2023-03-26T00:15:42.538Z,3.73
2023-03-26T00:18:11.975Z,3.83
2023-03-26T00:20:41.602Z,3.60
2023-03-26T00:23:10.769Z,4.00
2023-03-26T00:25:43.715Z,4.37
2023-03-26T00:28:12.512Z,4.13
2023-03-26T00:30:42.488Z,4.27
2023-03-26T00:33:11.948Z,4.00
2023-03-26T00:35:43.454Z,3.50
2023-03-26T00:38:13.056Z,4.57
2023-03-26T00:40:45.105Z,3.63
2023-03-26T00:43:19.437Z,4.23
2023-03-26T00:46:09.418Z,3.77
2023-03-26T00:51:13.230Z,3.37
2023-03-26T00:53:42.974Z,3.90
2023-03-26T00:56:14.303Z,4.13
2023-03-26T00:58:44.527Z,4.37
2023-03-26T01:01:16.657Z,4.13
2023-03-26T01:04:01.175Z,3.60
2023-03-26T01:06:36.837Z,3.97
2023-03-26T01:09:15.961Z,3.87
2023-03-26T01:11:46.872Z,4.00
2023-03-26T01:14:22.092Z,3.90
2023-03-26T01:16:54.967Z,4.30
2023-03-26T01:19:38.291Z,4.00
2023-03-26T01:22:12.506Z,3.30
2023-03-26T01:24:44.211Z,3.80
2023-03-26T01:27:32.078Z,3.77
2023-03-26T01:30:12.074Z,3.97
2023-03-26T01:33:04.348Z,4.50
2023-03-26T01:35:44.910Z,3.40
2023-03-26T01:38:28.279Z,4.10
2023-03-26T01:41:06.944Z,4.17
2023-03-26T01:43:41.438Z,3.87
2023-03-26T01:46:14.431Z,3.53
2023-03-26T01:48:47.179Z,4.33
2023-03-26T01:51:32.605Z,4.47
2023-03-26T01:54:04.279Z,3.40
2023-03-26T01:56:48.907Z,3.87
2023-03-26T01:59:43.581Z,3.30
2023-03-26T02:02:18.945Z,3.80
2023-03-26T02:04:56.810Z,4.40
2023-03-26T02:07:34.596Z,3.50
2023-03-26T02:10:13.750Z,3.33
2023-03-26T02:12:47.696Z,3.70
2023-03-26T02:15:17.505Z,4.27
2023-03-26T02:17:47.705Z,3.40
2023-03-26T02:20:19.386Z,4.17
2023-03-26T02:22:56.323Z,3.30
2023-03-26T02:25:27.055Z,3.30
2023-03-26T02:27:58.829Z,3.63
2023-03-26T02:30:30.396Z,3.90
2023-03-26T02:33:00.341Z,3.97
2023-03-26T02:35:39.354Z,4.17
2023-03-26T02:38:10.274Z,3.30
2023-03-26T02:40:39.700Z,3.63
2023-03-26T02:43:11.988Z,4.50
2023-03-26T02:45:41.027Z,3.80
2023-03-26T02:48:13.152Z,3.77
2023-03-26T02:50:42.747Z,3.77
2023-03-26T02:53:14.015Z,4.23
2023-03-26T02:55:42.965Z,3.97
2023-03-26T02:58:17.651Z,3.83
2023-03-26T03:00:47.564Z,4.60
2023-03-26T03:03:17.677Z,3.53
2023-03-26T03:05:46.912Z,3.57
2023-03-26T03:08:18.481Z,3.77
2023-03-26T03:11:00.728Z,4.50
2023-03-26T03:13:31.736Z,4.27
2023-03-26T03:16:05.579Z,3.30
2023-03-26T03:18:34.816Z,4.07
2023-03-26T03:21:04.988Z,3.50
2023-03-26T03:23:35.793Z,3.83
2023-03-26T03:26:14.680Z,3.93
2023-03-26T03:28:47.546Z,4.30
2023-03-26T03:31:16.485Z,3.57
2023-03-26T03:33:48.033Z,3.67
2023-03-26T03:36:22.014Z,3.70
2023-03-26T03:38:56.684Z,3.93
2023-03-26T03:41:25.765Z,4.00
2023-03-26T03:43:59.155Z,4.13
2023-03-26T03:46:29.285Z,3.90
2023-03-26T03:48:58.513Z,4.60
2023-03-26T03:51:29.470Z,4.33
2023-03-26T03:53:58.653Z,4.23
2023-03-26T03:56:29.540Z,3.83
2023-03-26T03:59:00.980Z,4.37
2023-03-26T04:01:31.072Z,4.43
2023-03-26T04:04:01.137Z,3.60
2023-03-26T04:06:32.690Z,3.83
2023-03-26T04:09:02.513Z,4.60
2023-03-26T04:11:32.787Z,4.30
2023-03-26T04:14:05.535Z,4.37
2023-03-26T04:16:35.373Z,3.70
2023-03-26T04:19:10.405Z,3.57
2023-03-26T04:21:43.038Z,3.43
2023-03-26T04:24:16.577Z,4.57
2023-03-26T04:26:48.312Z,4.00
2023-03-26T04:29:24.979Z,3.83
2023-03-26T04:31:58.809Z,3.60
2023-03-26T04:34:30.226Z,3.87
2023-03-26T04:36:59.159Z,3.70
2023-03-26T04:39:29.549Z,3.93
2023-03-26T04:41:59.333Z,3.87
2023-03-26T04:44:32.334Z,3.57
2023-03-26T04:47:02.100Z,4.10
2023-03-26T04:49:31.540Z,4.13
2023-03-26T04:52:01.102Z,4.57
2023-03-26T04:54:31.053Z,3.77
2023-03-26T04:57:03.949Z,3.63
2023-03-26T04:59:37.310Z,3.63
2023-03-26T05:02:08.757Z,3.53
2023-03-26T05:04:41.058Z,4.27
2023-03-26T05:07:11.622Z,5.03
2023-03-26T05:09:40.604Z,4.17
2023-03-26T05:12:10.064Z,4.80
2023-03-26T05:14:40.629Z,4.50
2023-03-26T05:17:11.012Z,3.30
2023-03-26T05:19:41.353Z,4.07
2023-03-26T05:22:10.408Z,4.43
2023-03-26T05:24:39.175Z,4.73
2023-03-26T05:27:09.923Z,3.70
2023-03-26T05:29:41.325Z,4.30
2023-03-26T05:32:12.129Z,3.90
2023-03-26T05:34:41.996Z,4.00
2023-03-26T05:37:10.953Z,3.73
2023-03-26T05:39:41.429Z,4.00
2023-03-26T05:42:11.259Z,3.73
2023-03-26T05:44:41.723Z,4.20
2023-03-26T05:47:11.030Z,3.40
2023-03-26T05:49:41.335Z,3.50
2023-03-26T05:52:10.848Z,3.70
2023-03-26T05:54:50.325Z,3.67
2023-03-26T05:57:19.946Z,3.33
2023-03-26T05:59:52.397Z,3.50
2023-03-26T06:02:21.376Z,3.63
2023-03-26T06:04:51.217Z,3.53
2023-03-26T06:07:21.319Z,3.23
2023-03-26T06:09:55.169Z,2.83
2023-03-26T06:12:25.961Z,3.33
2023-03-26T06:15:03.044Z,3.80
2023-03-26T06:17:32.732Z,3.50
2023-03-26T06:20:02.108Z,3.67
2023-03-26T06:22:31.921Z,2.83
2023-03-26T06:25:01.038Z,3.30
2023-03-26T06:27:30.816Z,3.43
2023-03-26T06:30:01.209Z,3.17
2023-03-26T06:32:31.942Z,3.57
2023-03-26T06:35:02.412Z,3.00
2023-03-26T06:37:31.734Z,2.90
2023-03-26T06:40:01.286Z,2.93
2023-03-26T06:43:06.970Z,2.83
2023-03-26T06:45:22.191Z,3.20
2023-03-26T06:47:52.296Z,3.77
2023-03-26T06:50:22.987Z,3.13
2023-03-26T06:52:57.204Z,3.27
2023-03-26T06:55:30.324Z,3.40
2023-03-26T06:57:59.878Z,3.07
2023-03-26T07:00:40.384Z,2.73
2023-03-26T07:03:11.614Z,2.90
2023-03-26T07:05:59.222Z,3.13
2023-03-26T07:08:40.593Z,3.23
2023-03-26T07:11:10.552Z,3.03
2023-03-26T07:13:42.728Z,3.27
2023-03-26T07:16:14.204Z,3.20
2023-03-26T07:18:55.425Z,3.03
2023-03-26T07:21:27.239Z,3.07
2023-03-26T07:24:00.211Z,3.17
2023-03-26T07:26:44.112Z,3.30
2023-03-26T07:29:23.401Z,3.50
2023-03-26T07:32:32.796Z,3.33
2023-03-26T07:35:08.974Z,2.90
2023-03-26T07:37:56.449Z,2.77
2023-03-26T07:40:51.286Z,2.53
2023-03-26T07:43:56.501Z,3.27
2023-03-26T07:46:34.416Z,2.97
2023-03-26T07:49:14.518Z,3.03
2023-03-26T07:51:44.477Z,3.03
2023-03-26T07:54:19.211Z,3.07
2023-03-26T07:56:58.688Z,2.83
2023-03-26T07:59:38.308Z,3.03
2023-03-26T08:03:05.813Z,2.27
2023-03-26T08:05:42.082Z,3.10
2023-03-26T08:08:21.371Z,2.60
2023-03-26T08:11:08.828Z,3.07
2023-03-26T08:14:00.488Z,2.60
2023-03-26T08:16:38.238Z,2.57
2023-03-26T08:19:41.082Z,2.93
2023-03-26T08:22:21.194Z,2.53
2023-03-26T08:25:20.246Z,3.43
2023-03-26T08:28:12.410Z,3.30
2023-03-26T08:30:41.914Z,3.20
2023-03-26T08:33:17.003Z,3.20
2023-03-26T08:35:47.386Z,2.90
2023-03-26T08:38:20.244Z,3.57
2023-03-26T08:41:33.321Z,3.07
2023-03-26T08:45:05.414Z,2.60
2023-03-26T08:48:37.091Z,2.87
2023-03-26T08:52:01.916Z,2.67
2023-03-26T08:55:37.302Z,2.60
2023-03-26T08:58:59.899Z,4.47
2023-03-26T09:02:33.228Z,2.67
2023-03-26T09:05:49.112Z,2.87
2023-03-26T09:09:06.240Z,2.60
2023-03-26T09:12:35.401Z,2.83
2023-03-26T09:15:41.066Z,2.57
2023-03-26T09:19:16.561Z,2.60
2023-03-26T09:22:34.528Z,3.20
2023-03-26T09:25:42.999Z,2.50
2023-03-26T09:28:59.209Z,2.97
2023-03-26T09:32:25.208Z,2.87
2023-03-26T09:35:21.172Z,2.90
2023-03-26T09:38:03.562Z,2.67
2023-03-26T09:40:43.012Z,2.50
2023-03-26T09:44:13.559Z,3.40
2023-03-26T09:47:01.007Z,2.60
2023-03-26T09:49:48.420Z,3.07
2023-03-26T09:52:54.970Z,2.83
2023-03-26T09:55:40.956Z,3.00
2023-03-26T09:59:10.846Z,2.70
2023-03-26T10:01:46.372Z,2.73
2023-03-26T10:04:56.678Z,2.90
2023-03-26T10:07:54.361Z,2.80
2023-03-26T10:10:39.777Z,3.30
2023-03-26T10:13:23.885Z,3.30
2023-03-26T10:16:17.992Z,2.80
2023-03-26T10:19:05.967Z,2.93
2023-03-26T10:21:45.795Z,3.17
2023-03-26T10:24:47.791Z,2.43
2023-03-26T10:27:36.673Z,2.53
2023-03-26T10:30:35.655Z,2.67
2023-03-26T10:33:25.148Z,2.67
2023-03-26T10:36:13.590Z,2.40
2023-03-26T10:39:09.786Z,2.90
2023-03-26T10:41:51.228Z,2.70
2023-03-26T10:44:45.625Z,2.97
2023-03-26T10:47:37.366Z,2.67
2023-03-26T10:50:34.926Z,3.00
2023-03-26T10:53:10.610Z,2.40
2023-03-26T10:55:45.427Z,3.07
2023-03-26T10:58:24.958Z,2.73
2023-03-26T11:01:02.254Z,2.83
2023-03-26T11:03:52.323Z,3.27
2023-03-26T11:06:36.620Z,2.93
2023-03-26T11:09:27.632Z,2.33
2023-03-26T11:12:26.648Z,2.70
2023-03-26T11:15:15.352Z,2.77
2023-03-26T11:17:56.997Z,2.83
2023-03-26T11:20:37.988Z,2.27
2023-03-26T11:23:28.548Z,2.43
2023-03-26T11:26:16.911Z,2.87
2023-03-26T11:29:32.217Z,3.37
2023-03-26T11:32:06.191Z,2.20
2023-03-26T11:34:39.868Z,2.30
2023-03-26T11:37:17.248Z,2.40
2023-03-26T11:39:58.472Z,2.07
2023-03-26T11:42:28.488Z,2.33
2023-03-26T11:45:01.523Z,2.90
2023-03-26T11:47:38.274Z,2.10
2023-03-26T11:50:16.468Z,2.80
2023-03-26T11:52:47.073Z,2.20
2023-03-26T11:55:18.129Z,2.73
2023-03-26T11:57:56.799Z,2.37
2023-03-26T12:00:28.872Z,2.37
2023-03-26T12:03:00.538Z,2.50
2023-03-26T12:05:33.714Z,2.53
2023-03-26T12:08:17.556Z,2.23
2023-03-26T12:11:01.818Z,2.27
2023-03-26T12:13:37.256Z,2.07
2023-03-26T12:16:14.307Z,2.20
2023-03-26T12:18:45.243Z,2.20
2023-03-26T12:21:17.128Z,2.60
2023-03-26T12:24:00.104Z,2.23
2023-03-26T12:26:43.002Z,2.13
2023-03-26T12:29:16.084Z,2.37
2023-03-26T12:31:58.519Z,2.50
2023-03-26T12:34:35.085Z,2.07
2023-03-26T12:37:06.999Z,2.10
2023-03-26T12:40:10.740Z,2.47
2023-03-26T12:44:49.409Z,2.30
2023-03-26T12:45:27.444Z,2.23
2023-03-26T12:48:03.746Z,2.67
2023-03-26T12:51:06.078Z,2.40
2023-03-26T12:54:04.965Z,2.20
2023-03-26T12:56:44.543Z,2.40
2023-03-26T12:59:39.000Z,2.37
2023-03-26T13:02:32.910Z,2.50
2023-03-26T13:05:19.690Z,2.20
2023-03-26T13:08:08.408Z,2.20
2023-03-26T13:10:53.527Z,2.27
2023-03-26T13:14:07.052Z,2.43
2023-03-26T13:16:46.712Z,2.27
2023-03-26T13:19:21.513Z,1.90
2023-03-26T13:22:15.749Z,1.90
2023-03-26T13:24:53.986Z,2.00
2023-03-26T13:27:45.966Z,1.93
2023-03-26T13:30:31.492Z,2.03
2023-03-26T13:33:37.170Z,1.70
2023-03-26T13:36:24.008Z,2.37
2023-03-26T13:39:18.688Z,1.70
2023-03-26T13:42:37.940Z,1.83
2023-03-26T13:45:24.025Z,1.80
2023-03-26T13:47:59.265Z,2.20
2023-03-26T13:50:33.880Z,1.87
2023-03-26T13:53:08.932Z,1.93
2023-03-26T13:55:43.193Z,2.40
2023-03-26T13:58:19.406Z,1.70
2023-03-26T14:00:57.346Z,1.90
2023-03-26T14:03:37.635Z,1.70
2023-03-26T14:06:21.869Z,1.90
2023-03-26T14:08:59.644Z,2.17
2023-03-26T14:11:41.891Z,1.80
2023-03-26T14:14:18.457Z,2.10
2023-03-26T14:16:55.340Z,2.27
2023-03-26T14:19:50.052Z,1.67
2023-03-26T14:22:33.934Z,2.50
2023-03-26T14:25:33.792Z,2.10
2023-03-26T14:28:21.694Z,1.77
2023-03-26T14:31:13.869Z,1.80
2023-03-26T14:34:05.040Z,2.30
2023-03-26T14:37:06.636Z,1.70
2023-03-26T14:40:17.077Z,1.70
2023-03-26T14:42:56.666Z,2.27
2023-03-26T14:46:07.667Z,1.90
2023-03-26T14:49:18.447Z,2.13
2023-03-26T14:52:03.376Z,2.57
2023-03-26T14:54:36.854Z,1.80
2023-03-26T14:57:54.697Z,2.00
2023-03-26T15:01:25.890Z,1.67
2023-03-26T15:04:46.407Z,2.13
2023-03-26T15:08:00.642Z,2.10
2023-03-26T15:11:25.011Z,1.97
2023-03-26T15:14:43.818Z,2.20
2023-03-26T15:18:18.176Z,1.97
2023-03-26T15:21:53.687Z,2.13
2023-03-26T15:25:01.918Z,1.97
2023-03-26T15:28:04.702Z,2.00
2023-03-26T15:31:19.203Z,2.03
2023-03-26T15:34:31.015Z,2.10
2023-03-26T15:37:58.948Z,2.07
2023-03-26T15:41:01.013Z,2.17
2023-03-26T15:44:23.260Z,1.90
2023-03-26T15:47:28.269Z,1.83
2023-03-26T15:50:16.162Z,2.30
2023-03-26T15:52:56.732Z,2.10
2023-03-26T15:55:36.919Z,2.20
2023-03-26T15:58:16.303Z,1.87
2023-03-26T16:00:57.058Z,2.30
2023-03-26T16:03:42.236Z,1.93
2023-03-26T16:06:32.834Z,1.97
2023-03-26T16:09:39.167Z,2.37
2023-03-26T16:12:34.897Z,2.10
2023-03-26T16:15:32.475Z,2.00
2023-03-26T16:18:34.234Z,1.80
2023-03-26T16:21:56.186Z,2.60
2023-03-26T16:24:35.405Z,1.90
2023-03-26T16:27:33.561Z,1.87
2023-03-26T16:30:20.953Z,1.60
2023-03-26T16:32:59.415Z,2.00
2023-03-26T16:36:07.618Z,1.57
2023-03-26T16:38:57.295Z,2.07
2023-03-26T16:41:31.701Z,1.90
2023-03-26T16:44:20.712Z,1.70
2023-03-26T16:46:59.096Z,1.77
2023-03-26T16:50:08.865Z,1.73
2023-03-26T16:52:52.292Z,2.07
2023-03-26T16:55:36.208Z,1.90
2023-03-26T16:58:18.281Z,2.33
2023-03-26T17:01:06.565Z,2.07
2023-03-26T17:03:46.422Z,2.33
2023-03-26T17:06:54.276Z,2.20
2023-03-26T17:09:39.368Z,2.17
2023-03-26T17:12:20.681Z,2.23
2023-03-26T17:15:22.682Z,2.23
2023-03-26T17:18:17.672Z,2.40
2023-03-26T17:21:00.028Z,2.50
2023-03-26T17:23:56.254Z,2.40
2023-03-26T17:26:34.306Z,1.90
2023-03-26T17:29:28.699Z,2.07
2023-03-26T17:32:14.456Z,2.40
2023-03-26T17:35:06.285Z,2.57
2023-03-26T17:37:50.313Z,2.50
2023-03-26T17:40:54.558Z,2.30
2023-03-26T17:43:43.688Z,2.20
2023-03-26T17:46:36.136Z,2.20
2023-03-26T17:49:17.430Z,2.47
2023-03-26T17:51:55.582Z,2.77
2023-03-26T17:54:40.238Z,2.27
2023-03-26T17:57:17.167Z,2.03
2023-03-26T17:59:50.251Z,1.93
2023-03-26T18:02:24.303Z,2.23
2023-03-26T18:04:56.019Z,2.40
2023-03-26T18:08:33.939Z,1.90
2023-03-26T18:11:22.264Z,2.40
2023-03-26T18:14:37.607Z,2.07
2023-03-26T18:17:11.274Z,2.20
2023-03-26T18:19:55.324Z,2.77
2023-03-26T18:22:29.499Z,2.30
2023-03-26T18:25:04.511Z,2.13
2023-03-26T18:27:40.633Z,2.20
2023-03-26T18:30:20.718Z,2.50
2023-03-26T18:33:03.519Z,2.63
2023-03-26T18:35:43.570Z,2.40
2023-03-26T18:38:35.126Z,3.00
2023-03-26T18:41:09.055Z,2.37
2023-03-26T18:43:44.456Z,2.70
2023-03-26T18:46:15.502Z,1.90
2023-03-26T18:48:48.562Z,2.17
2023-03-26T18:51:23.279Z,2.00
2023-03-26T18:54:02.076Z,2.00
2023-03-26T18:56:35.271Z,1.70
2023-03-26T18:59:07.184Z,2.10
2023-03-26T19:01:39.809Z,2.10
2023-03-26T19:04:13.860Z,2.30
2023-03-26T19:06:45.213Z,2.00
2023-03-26T19:09:28.004Z,2.17
2023-03-26T19:12:01.407Z,2.20
2023-03-26T19:14:36.660Z,1.80
2023-03-26T19:17:13.579Z,2.03
2023-03-26T19:19:45.299Z,2.43
2023-03-26T19:22:15.188Z,2.10
2023-03-26T19:24:45.471Z,2.00
2023-03-26T19:27:23.299Z,1.97
2023-03-26T19:29:52.812Z,2.50
2023-03-26T19:32:32.950Z,2.20
2023-03-26T19:35:32.093Z,2.73
2023-03-26T19:38:02.680Z,2.10
2023-03-26T19:40:37.343Z,2.67
2023-03-26T19:43:08.466Z,2.23
2023-03-26T19:45:38.613Z,2.63
2023-03-26T19:48:45.264Z,2.10
2023-03-26T19:51:34.770Z,2.30
2023-03-26T19:54:16.752Z,2.30
2023-03-26T19:56:46.063Z,2.17
2023-03-26T19:59:16.013Z,2.63
2023-03-26T20:01:45.764Z,2.13
2023-03-26T20:04:15.560Z,2.30
2023-03-26T20:06:49.443Z,1.80
2023-03-26T20:09:19.372Z,2.60
2023-03-26T20:11:48.754Z,2.13
2023-03-26T20:14:26.591Z,3.20
2023-03-26T20:16:58.561Z,2.37
2023-03-26T20:19:29.916Z,2.13
2023-03-26T20:22:10.289Z,2.00
2023-03-26T20:24:41.412Z,2.33
2023-03-26T20:27:12.838Z,2.37
2023-03-26T20:29:43.601Z,2.70
2023-03-26T20:32:27.659Z,2.40
2023-03-26T20:34:57.850Z,2.03
2023-03-26T20:37:31.863Z,2.00
2023-03-26T20:40:02.161Z,1.80
2023-03-26T20:42:31.026Z,1.83
2023-03-26T20:45:05.070Z,2.00
2023-03-26T20:47:34.389Z,2.10
2023-03-26T20:50:05.931Z,2.00
2023-03-26T20:52:36.311Z,2.07
2023-03-26T20:55:06.253Z,1.90
2023-03-26T20:57:35.820Z,2.17
2023-03-26T21:00:15.274Z,1.90
2023-03-26T21:02:46.375Z,2.57
2023-03-26T21:05:19.154Z,1.97
2023-03-26T21:07:53.090Z,1.90
2023-03-26T21:10:29.832Z,2.10
2023-03-26T21:13:07.831Z,2.23
2023-03-26T21:15:38.576Z,2.93
2023-03-26T21:18:08.868Z,2.73
2023-03-26T21:20:40.906Z,2.10
2023-03-26T21:23:18.804Z,2.20
2023-03-26T21:26:01.518Z,2.00
2023-03-26T21:28:42.391Z,2.50
2023-03-26T21:31:18.671Z,2.10
2023-03-26T21:33:49.744Z,2.40
2023-03-26T21:36:24.368Z,2.00
2023-03-26T21:38:59.326Z,2.10
2023-03-26T21:41:41.897Z,2.50
2023-03-26T21:44:12.782Z,1.90
2023-03-26T21:46:45.993Z,2.33
2023-03-26T21:49:17.988Z,2.30
2023-03-26T21:51:49.192Z,2.57
2023-03-26T21:54:32.664Z,2.33
2023-03-26T21:57:40.292Z,2.00
2023-03-26T22:00:16.159Z,2.30
2023-03-26T22:02:59.918Z,2.00
2023-03-26T22:05:38.182Z,2.03
2023-03-26T22:08:09.585Z,3.47
2023-03-26T22:10:49.085Z,1.83
2023-03-26T22:13:21.293Z,2.03
2023-03-26T22:15:50.967Z,2.03
2023-03-26T22:18:27.962Z,2.43
2023-03-26T22:20:59.505Z,1.87
2023-03-26T22:23:37.081Z,2.20
2023-03-26T22:26:08.834Z,2.90
2023-03-26T22:28:38.405Z,3.13
2023-03-26T22:31:09.166Z,2.77
2023-03-26T22:33:43.138Z,2.17
2023-03-26T22:36:22.422Z,2.17
2023-03-26T22:38:55.464Z,1.93
2023-03-26T22:41:47.390Z,2.20
2023-03-26T22:44:20.249Z,2.00
2023-03-26T22:46:51.865Z,2.20
2023-03-26T22:49:22.448Z,2.27
2023-03-26T22:51:53.444Z,3.03
2023-03-26T22:54:25.997Z,2.60
2023-03-26T22:57:16.243Z,2.20
2023-03-26T22:59:46.948Z,2.53
2023-03-26T23:02:30.035Z,2.10
2023-03-26T23:05:01.967Z,2.10
2023-03-26T23:07:34.431Z,1.90
2023-03-26T23:10:06.618Z,2.23
2023-03-26T23:12:44.732Z,2.50
2023-03-26T23:15:17.311Z,1.90
2023-03-26T23:18:02.812Z,1.77
2023-03-26T23:21:02.855Z,1.77
2023-03-26T23:23:48.970Z,1.87
2023-03-26T23:26:49.541Z,1.80
2023-03-26T23:29:40.529Z,1.63
2023-03-26T23:32:24.214Z,1.70
2023-03-26T23:35:07.342Z,1.40
2023-03-26T23:37:51.967Z,1.63
2023-03-26T23:40:31.470Z,1.43
2023-03-26T23:43:09.582Z,1.80
2023-03-26T23:45:48.088Z,1.60
2023-03-26T23:48:22.446Z,1.83
2023-03-26T23:51:08.626Z,2.33
2023-03-26T23:53:52.236Z,1.70
2023-03-26T23:56:37.108Z,1.43
2023-03-26T23:59:15.301Z,2.00
